sensor_id;sensor_type;location;lat;lon;timestamp;pressure;altitude;pressure_sealevel;temperature;humidity
43814;BME280;29669;55.706;37.656;2022-12-18T00:02:01;99488.63;;;-0.49;nan
43814;BME280;29669;55.706;37.656;2022-12-18T00:04:49;99489.34;;;-0.47;nan
43814;BME280;29669;55.706;37.656;2022-12-18T00:07:37;99477.31;;;-0.45;nan
43814;BME280;29669;55.706;37.656;2022-12-18T00:10:25;99458.75;;;-0.47;nan
43814;BME280;29669;55.706;37.656;2022-12-18T00:13:13;99462.00;;;-0.45;nan
43814;BME280;29669;55.706;37.656;2022-12-18T00:21:42;99451.63;;;-0.42;nan
43814;BME280;29669;55.706;37.656;2022-12-18T00:24:30;99452.44;;;-0.41;nan
43814;BME280;29669;55.706;37.656;2022-12-18T00:30:06;99442.94;;;-0.39;nan
43814;BME280;29669;55.706;37.656;2022-12-18T00:32:54;99447.44;;;-0.43;nan
43814;BME280;29669;55.706;37.656;2022-12-18T00:35:44;99441.44;;;-0.42;nan
43814;BME280;29669;55.706;37.656;2022-12-18T00:38:32;99442.94;;;-0.39;nan
43814;BME280;29669;55.706;37.656;2022-12-18T00:44:26;99426.94;;;-0.41;nan
43814;BME280;29669;55.706;37.656;2022-12-18T00:47:13;99410.84;;;-0.42;nan
43814;BME280;29669;55.706;37.656;2022-12-18T00:50:01;99420.09;;;-0.41;nan
43814;BME280;29669;55.706;37.656;2022-12-18T00:52:50;99405.03;;;-0.44;nan
43814;BME280;29669;55.706;37.656;2022-12-18T00:55:41;99397.38;;;-0.44;nan
43814;BME280;29669;55.706;37.656;2022-12-18T00:58:29;99392.28;;;-0.44;nan
43814;BME280;29669;55.706;37.656;2022-12-18T01:04:04;99380.44;;;-0.45;nan
43814;BME280;29669;55.706;37.656;2022-12-18T01:06:52;99376.16;;;-0.44;nan
43814;BME280;29669;55.706;37.656;2022-12-18T01:09:40;99367.81;;;-0.46;nan
43814;BME280;29669;55.706;37.656;2022-12-18T01:12:28;99371.19;;;-0.46;nan
43814;BME280;29669;55.706;37.656;2022-12-18T01:15:16;99369.41;;;-0.45;nan
43814;BME280;29669;55.706;37.656;2022-12-18T01:18:04;99361.16;;;-0.49;nan
43814;BME280;29669;55.706;37.656;2022-12-18T01:20:52;99359.56;;;-0.50;nan
43814;BME280;29669;55.706;37.656;2022-12-18T01:23:40;99355.16;;;-0.48;nan
43814;BME280;29669;55.706;37.656;2022-12-18T01:26:28;99349.34;;;-0.50;nan
43814;BME280;29669;55.706;37.656;2022-12-18T01:29:17;99356.78;;;-0.47;nan
43814;BME280;29669;55.706;37.656;2022-12-18T01:32:04;99354.34;;;-0.48;nan
43814;BME280;29669;55.706;37.656;2022-12-18T01:34:52;99367.19;;;-0.50;nan
43814;BME280;29669;55.706;37.656;2022-12-18T01:37:40;99366.97;;;-0.47;nan
43814;BME280;29669;55.706;37.656;2022-12-18T01:40:28;99363.72;;;-0.49;nan
43814;BME280;29669;55.706;37.656;2022-12-18T01:43:15;99348.63;;;-0.52;nan
43814;BME280;29669;55.706;37.656;2022-12-18T01:48:55;99350.38;;;-0.52;nan
43814;BME280;29669;55.706;37.656;2022-12-18T01:51:44;99351.38;;;-0.55;nan
43814;BME280;29669;55.706;37.656;2022-12-18T02:03:00;99343.72;;;-0.55;nan
43814;BME280;29669;55.706;37.656;2022-12-18T02:09:57;99339.56;;;-0.56;nan
43814;BME280;29669;55.706;37.656;2022-12-18T02:12:25;99334.88;;;-0.62;nan
43814;BME280;29669;55.706;37.656;2022-12-18T02:15:31;99338.47;;;-0.64;nan
43814;BME280;29669;55.706;37.656;2022-12-18T02:24:38;99349.66;;;-0.67;nan
43814;BME280;29669;55.706;37.656;2022-12-18T02:27:32;99354.16;;;-0.70;nan
43814;BME280;29669;55.706;37.656;2022-12-18T02:30:21;99340.59;;;-0.71;nan
43814;BME280;29669;55.706;37.656;2022-12-18T02:35:59;99331.31;;;-0.72;nan
43814;BME280;29669;55.706;37.656;2022-12-18T02:41:39;99340.09;;;-0.76;nan
43814;BME280;29669;55.706;37.656;2022-12-18T02:44:27;99346.91;;;-0.76;nan
43814;BME280;29669;55.706;37.656;2022-12-18T02:47:18;99347.81;;;-0.77;nan
43814;BME280;29669;55.706;37.656;2022-12-18T02:50:18;99341.72;;;-0.75;nan
43814;BME280;29669;55.706;37.656;2022-12-18T02:53:24;99353.56;;;-0.74;nan
43814;BME280;29669;55.706;37.656;2022-12-18T02:56:19;99352.91;;;-0.77;nan
43814;BME280;29669;55.706;37.656;2022-12-18T02:59:19;99343.06;;;-0.82;nan
43814;BME280;29669;55.706;37.656;2022-12-18T03:05:16;99348.44;;;-0.86;nan
43814;BME280;29669;55.706;37.656;2022-12-18T03:08:11;99326.44;;;-0.87;nan
43814;BME280;29669;55.706;37.656;2022-12-18T03:11:09;99322.13;;;-0.87;nan
43814;BME280;29669;55.706;37.656;2022-12-18T03:13:58;99333.47;;;-0.91;nan
43814;BME280;29669;55.706;37.656;2022-12-18T03:16:49;99328.16;;;-0.88;nan
43814;BME280;29669;55.706;37.656;2022-12-18T03:19:41;99314.63;;;-1.01;nan
43814;BME280;29669;55.706;37.656;2022-12-18T03:22:33;99339.47;;;-0.92;nan
43814;BME280;29669;55.706;37.656;2022-12-18T03:25:25;99339.47;;;-0.92;nan
43814;BME280;29669;55.706;37.656;2022-12-18T03:28:18;99345.19;;;-1.01;nan
43814;BME280;29669;55.706;37.656;2022-12-18T03:31:11;99353.72;;;-1.02;nan
43814;BME280;29669;55.706;37.656;2022-12-18T03:34:04;99352.72;;;-1.12;nan
43814;BME280;29669;55.706;37.656;2022-12-18T03:37:02;99339.88;;;-1.23;nan
43814;BME280;29669;55.706;37.656;2022-12-18T03:39:51;99343.03;;;-1.20;nan
43814;BME280;29669;55.706;37.656;2022-12-18T03:42:48;99344.75;;;-1.20;nan
43814;BME280;29669;55.706;37.656;2022-12-18T03:45:44;99335.50;;;-1.21;nan
43814;BME280;29669;55.706;37.656;2022-12-18T03:48:43;99338.72;;;-1.19;nan
43814;BME280;29669;55.706;37.656;2022-12-18T03:57:25;99324.38;;;-1.20;nan
43814;BME280;29669;55.706;37.656;2022-12-18T04:00:16;99340.97;;;-1.27;nan
43814;BME280;29669;55.706;37.656;2022-12-18T04:03:24;99342.97;;;-1.32;nan
43814;BME280;29669;55.706;37.656;2022-12-18T04:06:14;99344.16;;;-1.50;nan
43814;BME280;29669;55.706;37.656;2022-12-18T04:09:04;99332.94;;;-1.60;nan
43814;BME280;29669;55.706;37.656;2022-12-18T04:14:45;99335.69;;;-1.63;nan
43814;BME280;29669;55.706;37.656;2022-12-18T04:20:21;99372.94;;;-1.62;nan
43814;BME280;29669;55.706;37.656;2022-12-18T04:23:09;99383.09;;;-1.62;nan
43814;BME280;29669;55.706;37.656;2022-12-18T04:25:59;99376.41;;;-1.63;nan
43814;BME280;29669;55.706;37.656;2022-12-18T04:29:06;99385.75;;;-1.64;nan
43814;BME280;29669;55.706;37.656;2022-12-18T04:31:53;99393.00;;;-1.58;nan
43814;BME280;29669;55.706;37.656;2022-12-18T04:34:43;99404.72;;;-1.55;nan
43814;BME280;29669;55.706;37.656;2022-12-18T04:40:19;99421.81;;;-1.57;nan
43814;BME280;29669;55.706;37.656;2022-12-18T04:43:08;99412.75;;;-1.61;nan
43814;BME280;29669;55.706;37.656;2022-12-18T04:46:04;99426.09;;;-1.58;nan
43814;BME280;29669;55.706;37.656;2022-12-18T04:51:39;99441.09;;;-1.67;nan
43814;BME280;29669;55.706;37.656;2022-12-18T04:54:27;99431.81;;;-1.68;nan
43814;BME280;29669;55.706;37.656;2022-12-18T05:00:03;99444.53;;;-1.68;nan
43814;BME280;29669;55.706;37.656;2022-12-18T05:02:51;99441.09;;;-1.67;nan
43814;BME280;29669;55.706;37.656;2022-12-18T05:05:39;99436.38;;;-1.73;nan
43814;BME280;29669;55.706;37.656;2022-12-18T05:08:26;99427.13;;;-1.74;nan
43814;BME280;29669;55.706;37.656;2022-12-18T05:11:15;99421.78;;;-1.84;nan
43814;BME280;29669;55.706;37.656;2022-12-18T05:14:03;99435.34;;;-1.98;nan
43814;BME280;29669;55.706;37.656;2022-12-18T05:19:44;99438.41;;;-1.93;nan
43814;BME280;29669;55.706;37.656;2022-12-18T05:22:31;99455.59;;;-1.96;nan
43814;BME280;29669;55.706;37.656;2022-12-18T05:25:19;99437.78;;;-1.96;nan
43814;BME280;29669;55.706;37.656;2022-12-18T05:28:07;99458.84;;;-1.94;nan
43814;BME280;29669;55.706;37.656;2022-12-18T05:30:58;99464.78;;;-1.94;nan
43814;BME280;29669;55.706;37.656;2022-12-18T05:36:37;99476.66;;;-1.94;nan
43814;BME280;29669;55.706;37.656;2022-12-18T05:39:24;99475.03;;;-1.95;nan
43814;BME280;29669;55.706;37.656;2022-12-18T05:42:12;99486.94;;;-1.96;nan
43814;BME280;29669;55.706;37.656;2022-12-18T05:45:00;99500.72;;;-2.00;nan
43814;BME280;29669;55.706;37.656;2022-12-18T05:53:27;99508.63;;;-2.04;nan
43814;BME280;29669;55.706;37.656;2022-12-18T05:56:18;99512.19;;;-2.07;nan
43814;BME280;29669;55.706;37.656;2022-12-18T05:59:06;99526.34;;;-2.03;nan
43814;BME280;29669;55.706;37.656;2022-12-18T06:01:54;99520.97;;;-2.12;nan
43814;BME280;29669;55.706;37.656;2022-12-18T06:04:42;99531.22;;;-2.14;nan
43814;BME280;29669;55.706;37.656;2022-12-18T06:07:30;99523.88;;;-2.18;nan
43814;BME280;29669;55.706;37.656;2022-12-18T06:10:19;99523.25;;;-2.22;nan
43814;BME280;29669;55.706;37.656;2022-12-18T06:13:07;99540.75;;;-2.17;nan
43814;BME280;29669;55.706;37.656;2022-12-18T06:15:55;99542.84;;;-2.24;nan
43814;BME280;29669;55.706;37.656;2022-12-18T06:18:43;99525.66;;;-2.34;nan
43814;BME280;29669;55.706;37.656;2022-12-18T06:21:32;99567.41;;;-2.38;nan
43814;BME280;29669;55.706;37.656;2022-12-18T06:27:07;99556.50;;;-2.40;nan
43814;BME280;29669;55.706;37.656;2022-12-18T06:35:33;99574.13;;;-2.37;nan
43814;BME280;29669;55.706;37.656;2022-12-18T06:38:21;99573.94;;;-2.34;nan
43814;BME280;29669;55.706;37.656;2022-12-18T06:41:19;99578.59;;;-2.27;nan
43814;BME280;29669;55.706;37.656;2022-12-18T06:44:11;99573.06;;;-2.33;nan
43814;BME280;29669;55.706;37.656;2022-12-18T06:46:59;99592.38;;;-2.31;nan
43814;BME280;29669;55.706;37.656;2022-12-18T06:58:09;99613.56;;;-2.46;nan
43814;BME280;29669;55.706;37.656;2022-12-18T07:01:05;99635.84;;;-2.35;nan
43814;BME280;29669;55.706;37.656;2022-12-18T07:03:54;99639.78;;;-2.30;nan
43814;BME280;29669;55.706;37.656;2022-12-18T07:06:42;99652.88;;;-2.22;nan
43814;BME280;29669;55.706;37.656;2022-12-18T07:09:30;99626.00;;;-2.26;nan
43814;BME280;29669;55.706;37.656;2022-12-18T07:12:18;99627.28;;;-2.19;nan
43814;BME280;29669;55.706;37.656;2022-12-18T07:17:54;99644.22;;;-2.04;nan
43814;BME280;29669;55.706;37.656;2022-12-18T07:20:41;99633.31;;;-2.06;nan
43814;BME280;29669;55.706;37.656;2022-12-18T07:23:29;99646.13;;;-2.07;nan
43814;BME280;29669;55.706;37.656;2022-12-18T07:29:06;99663.56;;;-2.01;nan
43814;BME280;29669;55.706;37.656;2022-12-18T07:31:54;99671.84;;;-1.98;nan
43814;BME280;29669;55.706;37.656;2022-12-18T07:34:41;99686.84;;;-1.93;nan
43814;BME280;29669;55.706;37.656;2022-12-18T07:43:04;99687.41;;;-1.88;nan
43814;BME280;29669;55.706;37.656;2022-12-18T07:45:51;99675.50;;;-1.87;nan
43814;BME280;29669;55.706;37.656;2022-12-18T07:48:41;99680.59;;;-1.87;nan
43814;BME280;29669;55.706;37.656;2022-12-18T07:51:28;99689.13;;;-1.88;nan
43814;BME280;29669;55.706;37.656;2022-12-18T07:54:16;99676.41;;;-1.88;nan
43814;BME280;29669;55.706;37.656;2022-12-18T07:57:04;99690.94;;;-1.91;nan
43814;BME280;29669;55.706;37.656;2022-12-18T08:00:08;99697.72;;;-1.91;nan
43814;BME280;29669;55.706;37.656;2022-12-18T08:05:49;99699.94;;;-1.85;nan
43814;BME280;29669;55.706;37.656;2022-12-18T08:08:36;99703.50;;;-1.87;nan
43814;BME280;29669;55.706;37.656;2022-12-18T08:11:26;99708.00;;;-1.93;nan
43814;BME280;29669;55.706;37.656;2022-12-18T08:14:14;99722.28;;;-1.90;nan
43814;BME280;29669;55.706;37.656;2022-12-18T08:17:02;99732.53;;;-1.92;nan
43814;BME280;29669;55.706;37.656;2022-12-18T08:19:50;99740.72;;;-1.86;nan
43814;BME280;29669;55.706;37.656;2022-12-18T08:22:37;99741.38;;;-1.83;nan
43814;BME280;29669;55.706;37.656;2022-12-18T08:25:26;99760.75;;;-1.80;nan
43814;BME280;29669;55.706;37.656;2022-12-18T08:28:17;99767.72;;;-1.84;nan
43814;BME280;29669;55.706;37.656;2022-12-18T08:31:05;99775.16;;;-1.81;nan
43814;BME280;29669;55.706;37.656;2022-12-18T08:33:54;99765.63;;;-1.77;nan
43814;BME280;29669;55.706;37.656;2022-12-18T08:36:42;99776.31;;;-1.71;nan
43814;BME280;29669;55.706;37.656;2022-12-18T08:39:29;99764.41;;;-1.70;nan
43814;BME280;29669;55.706;37.656;2022-12-18T08:42:17;99774.59;;;-1.70;nan
43814;BME280;29669;55.706;37.656;2022-12-18T08:45:24;99777.69;;;-1.65;nan
43814;BME280;29669;55.706;37.656;2022-12-18T08:48:12;99769.88;;;-1.62;nan
43814;BME280;29669;55.706;37.656;2022-12-18T08:51:04;99779.06;;;-1.60;nan
43814;BME280;29669;55.706;37.656;2022-12-18T08:53:52;99802.38;;;-1.52;nan
43814;BME280;29669;55.706;37.656;2022-12-18T08:56:39;99789.53;;;-1.50;nan
43814;BME280;29669;55.706;37.656;2022-12-18T09:02:18;99786.09;;;-1.49;nan
43814;BME280;29669;55.706;37.656;2022-12-18T09:05:06;99792.97;;;-1.51;nan
43814;BME280;29669;55.706;37.656;2022-12-18T09:10:45;99774.91;;;-1.47;nan
43814;BME280;29669;55.706;37.656;2022-12-18T09:13:33;99784.91;;;-1.44;nan
43814;BME280;29669;55.706;37.656;2022-12-18T09:16:22;99800.84;;;-1.40;nan
43814;BME280;29669;55.706;37.656;2022-12-18T09:19:16;99800.13;;;-1.42;nan
43814;BME280;29669;55.706;37.656;2022-12-18T09:22:04;99806.09;;;-1.43;nan
43814;BME280;29669;55.706;37.656;2022-12-18T09:24:52;99816.94;;;-1.40;nan
43814;BME280;29669;55.706;37.656;2022-12-18T09:27:39;99827.75;;;-1.36;nan
43814;BME280;29669;55.706;37.656;2022-12-18T09:30:27;99819.56;;;-1.41;nan
43814;BME280;29669;55.706;37.656;2022-12-18T09:33:16;99837.38;;;-1.41;nan
43814;BME280;29669;55.706;37.656;2022-12-18T09:36:06;99830.66;;;-1.42;nan
43814;BME280;29669;55.706;37.656;2022-12-18T09:38:54;99840.91;;;-1.44;nan
43814;BME280;29669;55.706;37.656;2022-12-18T09:41:43;99842.31;;;-1.38;nan
43814;BME280;29669;55.706;37.656;2022-12-18T09:44:36;99848.94;;;-1.36;nan
43814;BME280;29669;55.706;37.656;2022-12-18T09:47:36;99858.38;;;-1.38;nan
43814;BME280;29669;55.706;37.656;2022-12-18T09:53:25;99856.66;;;-1.37;nan
43814;BME280;29669;55.706;37.656;2022-12-18T09:56:17;99857.31;;;-1.34;nan
43814;BME280;29669;55.706;37.656;2022-12-18T10:02:17;99870.69;;;-1.30;nan
43814;BME280;29669;55.706;37.656;2022-12-18T10:05:17;99859.63;;;-1.29;nan
43814;BME280;29669;55.706;37.656;2022-12-18T10:14:45;99891.03;;;-1.44;nan
43814;BME280;29669;55.706;37.656;2022-12-18T10:17:51;99877.72;;;-1.49;nan
43814;BME280;29669;55.706;37.656;2022-12-18T10:24:02;99884.03;;;-1.56;nan
43814;BME280;29669;55.706;37.656;2022-12-18T10:27:12;99880.53;;;-1.54;nan
43814;BME280;29669;55.706;37.656;2022-12-18T10:30:12;99879.38;;;-1.48;nan
43814;BME280;29669;55.706;37.656;2022-12-18T10:33:02;99879.50;;;-1.51;nan
43814;BME280;29669;55.706;37.656;2022-12-18T10:35:53;99874.50;;;-1.53;nan
43814;BME280;29669;55.706;37.656;2022-12-18T10:38:42;99866.63;;;-1.48;nan
43814;BME280;29669;55.706;37.656;2022-12-18T10:41:30;99882.66;;;-1.46;nan
43814;BME280;29669;55.706;37.656;2022-12-18T10:44:22;99886.81;;;-1.45;nan
43814;BME280;29669;55.706;37.656;2022-12-18T10:52:57;99896.25;;;-1.47;nan
43814;BME280;29669;55.706;37.656;2022-12-18T10:55:46;99917.44;;;-1.47;nan
43814;BME280;29669;55.706;37.656;2022-12-18T10:58:36;99936.75;;;-1.43;nan
43814;BME280;29669;55.706;37.656;2022-12-18T11:01:24;99936.66;;;-1.41;nan
43814;BME280;29669;55.706;37.656;2022-12-18T11:07:08;99938.47;;;-1.43;nan
43814;BME280;29669;55.706;37.656;2022-12-18T11:10:05;99951.03;;;-1.40;nan
43814;BME280;29669;55.706;37.656;2022-12-18T11:12:53;99970.41;;;-1.38;nan
43814;BME280;29669;55.706;37.656;2022-12-18T11:18:32;99959.56;;;-1.41;nan
43814;BME280;29669;55.706;37.656;2022-12-18T11:21:21;99954.47;;;-1.41;nan
43814;BME280;29669;55.706;37.656;2022-12-18T11:36:02;99954.88;;;-1.64;nan
43814;BME280;29669;55.706;37.656;2022-12-18T11:38:56;99971.50;;;-1.57;nan
43814;BME280;29669;55.706;37.656;2022-12-18T11:41:58;99974.59;;;-1.52;nan
43814;BME280;29669;55.706;37.656;2022-12-18T11:48:03;99970.50;;;-1.55;nan
43814;BME280;29669;55.706;37.656;2022-12-18T12:06:18;100014.41;;;-1.51;nan
43814;BME280;29669;55.706;37.656;2022-12-18T12:09:23;100035.88;;;-1.55;nan
43814;BME280;29669;55.706;37.656;2022-12-18T12:22:28;100066.44;;;-1.72;nan
43814;BME280;29669;55.706;37.656;2022-12-18T12:38:28;100090.31;;;-1.75;nan
43814;BME280;29669;55.706;37.656;2022-12-18T12:44:39;100087.78;;;-1.75;nan
43814;BME280;29669;55.706;37.656;2022-12-18T12:47:38;100092.94;;;-1.76;nan
43814;BME280;29669;55.706;37.656;2022-12-18T12:50:29;100096.09;;;-1.88;nan
43814;BME280;29669;55.706;37.656;2022-12-18T12:53:33;100119.75;;;-1.86;nan
43814;BME280;29669;55.706;37.656;2022-12-18T12:56:22;100123.25;;;-1.89;nan
43814;BME280;29669;55.706;37.656;2022-12-18T13:05:53;100140.31;;;-1.91;nan
43814;BME280;29669;55.706;37.656;2022-12-18T13:11:43;100159.47;;;-1.84;nan
43814;BME280;29669;55.706;37.656;2022-12-18T13:14:51;100156.56;;;-1.94;nan
43814;BME280;29669;55.706;37.656;2022-12-18T13:20:33;100156.25;;;-1.87;nan
43814;BME280;29669;55.706;37.656;2022-12-18T13:29:04;100178.78;;;-1.80;nan
43814;BME280;29669;55.706;37.656;2022-12-18T13:31:57;100182.88;;;-1.77;nan
43814;BME280;29669;55.706;37.656;2022-12-18T13:34:47;100185.97;;;-1.88;nan
43814;BME280;29669;55.706;37.656;2022-12-18T13:37:45;100195.88;;;-1.83;nan
43814;BME280;29669;55.706;37.656;2022-12-18T13:43:30;100202.06;;;-1.87;nan
43814;BME280;29669;55.706;37.656;2022-12-18T13:49:43;100237.34;;;-1.81;nan
43814;BME280;29669;55.706;37.656;2022-12-18T13:52:36;100230.47;;;-1.79;nan
43814;BME280;29669;55.706;37.656;2022-12-18T13:55:26;100229.41;;;-1.93;nan
43814;BME280;29669;55.706;37.656;2022-12-18T13:58:14;100251.19;;;-1.87;nan
43814;BME280;29669;55.706;37.656;2022-12-18T14:01:02;100270.41;;;-1.81;nan
43814;BME280;29669;55.706;37.656;2022-12-18T14:04:09;100257.66;;;-1.80;nan
43814;BME280;29669;55.706;37.656;2022-12-18T14:07:04;100267.06;;;-1.82;nan
43814;BME280;29669;55.706;37.656;2022-12-18T14:09:55;100258.78;;;-1.85;nan
43814;BME280;29669;55.706;37.656;2022-12-18T14:15:50;100266.25;;;-1.82;nan
43814;BME280;29669;55.706;37.656;2022-12-18T14:21:34;100278.38;;;-1.87;nan
43814;BME280;29669;55.706;37.656;2022-12-18T14:24:22;100290.09;;;-1.85;nan
43814;BME280;29669;55.706;37.656;2022-12-18T14:27:21;100292.03;;;-1.90;nan
43814;BME280;29669;55.706;37.656;2022-12-18T14:30:30;100297.72;;;-1.85;nan
43814;BME280;29669;55.706;37.656;2022-12-18T14:33:26;100297.97;;;-2.08;nan
43814;BME280;29669;55.706;37.656;2022-12-18T14:36:17;100316.63;;;-2.26;nan
43814;BME280;29669;55.706;37.656;2022-12-18T14:42:03;100330.16;;;-2.26;nan
43814;BME280;29669;55.706;37.656;2022-12-18T14:44:51;100337.72;;;-2.24;nan
43814;BME280;29669;55.706;37.656;2022-12-18T14:48:00;100351.25;;;-2.24;nan
43814;BME280;29669;55.706;37.656;2022-12-18T14:50:57;100337.66;;;-2.23;nan
43814;BME280;29669;55.706;37.656;2022-12-18T14:56:46;100360.75;;;-2.27;nan
43814;BME280;29669;55.706;37.656;2022-12-18T14:59:35;100366.63;;;-2.27;nan
43814;BME280;29669;55.706;37.656;2022-12-18T15:02:25;100371.88;;;-2.30;nan
43814;BME280;29669;55.706;37.656;2022-12-18T15:05:28;100369.31;;;-2.30;nan
43814;BME280;29669;55.706;37.656;2022-12-18T15:08:35;100353.09;;;-2.46;nan
43814;BME280;29669;55.706;37.656;2022-12-18T15:11:45;100385.75;;;-2.37;nan
43814;BME280;29669;55.706;37.656;2022-12-18T15:14:40;100391.97;;;-2.44;nan
43814;BME280;29669;55.706;37.656;2022-12-18T15:17:29;100385.66;;;-2.54;nan
43814;BME280;29669;55.706;37.656;2022-12-18T15:26:23;100405.84;;;-2.51;nan
43814;BME280;29669;55.706;37.656;2022-12-18T15:32:19;100415.06;;;-2.48;nan
43814;BME280;29669;55.706;37.656;2022-12-18T15:35:20;100417.72;;;-2.51;nan
43814;BME280;29669;55.706;37.656;2022-12-18T15:38:08;100413.72;;;-2.57;nan
43814;BME280;29669;55.706;37.656;2022-12-18T15:40:56;100424.03;;;-2.60;nan
43814;BME280;29669;55.706;37.656;2022-12-18T15:43:46;100420.34;;;-2.73;nan
43814;BME280;29669;55.706;37.656;2022-12-18T15:46:34;100412.59;;;-2.70;nan
43814;BME280;29669;55.706;37.656;2022-12-18T15:49:22;100441.03;;;-2.62;nan
43814;BME280;29669;55.706;37.656;2022-12-18T15:52:12;100421.34;;;-2.77;nan
43814;BME280;29669;55.706;37.656;2022-12-18T15:55:01;100434.69;;;-2.72;nan
43814;BME280;29669;55.706;37.656;2022-12-18T15:58:09;100440.16;;;-2.81;nan
43814;BME280;29669;55.706;37.656;2022-12-18T16:00:58;100438.50;;;-2.82;nan
43814;BME280;29669;55.706;37.656;2022-12-18T16:03:47;100442.69;;;-2.81;nan
43814;BME280;29669;55.706;37.656;2022-12-18T16:06:35;100446.50;;;-2.71;nan
43814;BME280;29669;55.706;37.656;2022-12-18T16:09:43;100461.47;;;-2.65;nan
43814;BME280;29669;55.706;37.656;2022-12-18T16:12:31;100459.84;;;-2.66;nan
43814;BME280;29669;55.706;37.656;2022-12-18T16:15:20;100479.09;;;-2.60;nan
43814;BME280;29669;55.706;37.656;2022-12-18T16:18:11;100477.44;;;-2.61;nan
43814;BME280;29669;55.706;37.656;2022-12-18T16:20:59;100494.84;;;-2.52;nan
43814;BME280;29669;55.706;37.656;2022-12-18T16:23:47;100507.75;;;-2.57;nan
43814;BME280;29669;55.706;37.656;2022-12-18T16:26:35;100489.31;;;-2.62;nan
43814;BME280;29669;55.706;37.656;2022-12-18T16:29:23;100484.25;;;-2.82;nan
43814;BME280;29669;55.706;37.656;2022-12-18T16:32:20;100508.19;;;-2.89;nan
43814;BME280;29669;55.706;37.656;2022-12-18T16:35:10;100516.25;;;-3.00;nan
43814;BME280;29669;55.706;37.656;2022-12-18T16:37:58;100523.34;;;-3.08;nan
43814;BME280;29669;55.706;37.656;2022-12-18T16:40:49;100531.38;;;-3.18;nan
43814;BME280;29669;55.706;37.656;2022-12-18T16:43:59;100535.78;;;-3.23;nan
43814;BME280;29669;55.706;37.656;2022-12-18T16:46:47;100528.38;;;-3.29;nan
43814;BME280;29669;55.706;37.656;2022-12-18T16:49:36;100536.06;;;-3.31;nan
43814;BME280;29669;55.706;37.656;2022-12-18T16:52:24;100533.38;;;-3.26;nan
43814;BME280;29669;55.706;37.656;2022-12-18T16:55:13;100538.44;;;-3.26;nan
43814;BME280;29669;55.706;37.656;2022-12-18T16:58:09;100527.31;;;-3.45;nan
43814;BME280;29669;55.706;37.656;2022-12-18T17:01:14;100562.97;;;-3.48;nan
43814;BME280;29669;55.706;37.656;2022-12-18T17:04:25;100562.34;;;-3.55;nan
43814;BME280;29669;55.706;37.656;2022-12-18T17:10:28;100567.47;;;-3.79;nan
43814;BME280;29669;55.706;37.656;2022-12-18T17:13:57;100561.50;;;-4.02;nan
43814;BME280;29669;55.706;37.656;2022-12-18T17:16:46;100574.44;;;-4.09;nan
43814;BME280;29669;55.706;37.656;2022-12-18T17:22:32;100589.94;;;-4.18;nan
43814;BME280;29669;55.706;37.656;2022-12-18T17:25:20;100587.44;;;-4.20;nan
43814;BME280;29669;55.706;37.656;2022-12-18T17:28:08;100598.59;;;-4.25;nan
43814;BME280;29669;55.706;37.656;2022-12-18T17:30:57;100600.28;;;-4.24;nan
43814;BME280;29669;55.706;37.656;2022-12-18T17:36:33;100617.00;;;-4.19;nan
43814;BME280;29669;55.706;37.656;2022-12-18T17:42:09;100613.28;;;-4.35;nan
43814;BME280;29669;55.706;37.656;2022-12-18T17:45:02;100621.13;;;-4.42;nan
43814;BME280;29669;55.706;37.656;2022-12-18T17:50:46;100645.72;;;-4.46;nan
43814;BME280;29669;55.706;37.656;2022-12-18T17:53:37;100652.72;;;-4.52;nan
43814;BME280;29669;55.706;37.656;2022-12-18T17:56:28;100660.00;;;-4.69;nan
43814;BME280;29669;55.706;37.656;2022-12-18T17:59:16;100643.59;;;-4.86;nan
43814;BME280;29669;55.706;37.656;2022-12-18T18:02:05;100650.31;;;-4.85;nan
43814;BME280;29669;55.706;37.656;2022-12-18T18:04:54;100652.00;;;-4.85;nan
43814;BME280;29669;55.706;37.656;2022-12-18T18:07:41;100673.34;;;-4.94;nan
43814;BME280;29669;55.706;37.656;2022-12-18T18:10:31;100687.41;;;-4.84;nan
43814;BME280;29669;55.706;37.656;2022-12-18T18:13:24;100688.41;;;-4.89;nan
43814;BME280;29669;55.706;37.656;2022-12-18T18:16:42;100698.09;;;-5.03;nan
43814;BME280;29669;55.706;37.656;2022-12-18T18:19:31;100707.47;;;-5.07;nan
43814;BME280;29669;55.706;37.656;2022-12-18T18:22:19;100709.16;;;-5.06;nan
43814;BME280;29669;55.706;37.656;2022-12-18T18:25:08;100686.81;;;-5.22;nan
43814;BME280;29669;55.706;37.656;2022-12-18T18:30:44;100703.94;;;-5.30;nan
43814;BME280;29669;55.706;37.656;2022-12-18T18:41:57;100733.91;;;-5.47;nan
43814;BME280;29669;55.706;37.656;2022-12-18T18:47:36;100728.03;;;-5.49;nan
43814;BME280;29669;55.706;37.656;2022-12-18T18:50:24;100741.78;;;-5.59;nan
43814;BME280;29669;55.706;37.656;2022-12-18T18:53:15;100745.19;;;-5.60;nan
43814;BME280;29669;55.706;37.656;2022-12-18T18:56:04;100739.97;;;-5.54;nan
43814;BME280;29669;55.706;37.656;2022-12-18T18:59:16;100750.41;;;-5.66;nan
43814;BME280;29669;55.706;37.656;2022-12-18T19:02:15;100748.91;;;-5.73;nan
43814;BME280;29669;55.706;37.656;2022-12-18T19:05:08;100787.75;;;-5.78;nan
43814;BME280;29669;55.706;37.656;2022-12-18T19:13:32;100787.75;;;-5.78;nan
43814;BME280;29669;55.706;37.656;2022-12-18T19:16:21;100793.81;;;-5.85;nan
43814;BME280;29669;55.706;37.656;2022-12-18T19:19:10;100798.47;;;-6.03;nan
43814;BME280;29669;55.706;37.656;2022-12-18T19:21:58;100817.25;;;-6.13;nan
43814;BME280;29669;55.706;37.656;2022-12-18T19:24:46;100820.59;;;-6.13;nan
43814;BME280;29669;55.706;37.656;2022-12-18T19:30:25;100815.22;;;-6.36;nan
43814;BME280;29669;55.706;37.656;2022-12-18T19:33:13;100819.50;;;-6.41;nan
43814;BME280;29669;55.706;37.656;2022-12-18T19:36:26;100831.38;;;-6.44;nan
43814;BME280;29669;55.706;37.656;2022-12-18T19:39:15;100835.84;;;-6.57;nan
43814;BME280;29669;55.706;37.656;2022-12-18T19:42:04;100845.34;;;-6.69;nan
43814;BME280;29669;55.706;37.656;2022-12-18T19:44:51;100864.72;;;-6.72;nan
43814;BME280;29669;55.706;37.656;2022-12-18T19:47:39;100855.47;;;-6.71;nan
43814;BME280;29669;55.706;37.656;2022-12-18T19:50:27;100863.25;;;-6.82;nan
43814;BME280;29669;55.706;37.656;2022-12-18T19:53:15;100851.75;;;-6.98;nan
43814;BME280;29669;55.706;37.656;2022-12-18T19:56:11;100856.94;;;-7.05;nan